sensor_id;sensor_type;location;lat;lon;timestamp;pressure;altitude;pressure_sealevel;temperature;humidity
13968;BME280;39536;52.198;9.920;2023-03-18T00:01:50;99973.16;;;13.30;99.39
13968;BME280;39536;52.198;9.920;2023-03-18T00:04:17;99964.63;;;13.26;99.39
13968;BME280;39536;52.198;9.920;2023-03-18T00:06:43;99967.19;;;13.28;99.47
13968;BME280;39536;52.198;9.920;2023-03-18T00:09:10;99963.78;;;13.26;100.00
13968;BME280;39536;52.198;9.920;2023-03-18T00:11:39;99967.25;;;13.26;100.00
13968;BME280;39536;52.198;9.920;2023-03-18T00:14:06;99973.44;;;13.24;100.00
13968;BME280;39536;52.198;9.920;2023-03-18T00:16:34;99981.03;;;13.12;100.00
13968;BME280;39536;52.198;9.920;2023-03-18T00:19:01;99978.25;;;13.15;100.00
13968;BME280;39536;52.198;9.920;2023-03-18T00:21:28;99980.09;;;13.13;100.00
13968;BME280;39536;52.198;9.920;2023-03-18T00:23:55;99990.66;;;13.12;100.00
13968;BME280;39536;52.198;9.920;2023-03-18T00:26:23;99980.25;;;13.10;100.00
13968;BME280;39536;52.198;9.920;2023-03-18T00:28:54;99985.47;;;13.10;100.00
13968;BME280;39536;52.198;9.920;2023-03-18T00:31:23;99986.41;;;13.09;100.00
13968;BME280;39536;52.198;9.920;2023-03-18T00:33:50;99987.56;;;13.04;100.00
13968;BME280;39536;52.198;9.920;2023-03-18T00:36:17;99983.19;;;13.04;100.00
13968;BME280;39536;52.198;9.920;2023-03-18T00:38:50;99993.13;;;12.98;100.00
13968;BME280;39536;52.198;9.920;2023-03-18T00:41:22;99992.97;;;13.01;100.00
13968;BME280;39536;52.198;9.920;2023-03-18T00:43:51;99984.28;;;13.00;100.00
13968;BME280;39536;52.198;9.920;2023-03-18T00:46:20;99993.28;;;12.94;100.00
13968;BME280;39536;52.198;9.920;2023-03-18T00:48:48;99994.22;;;12.93;100.00
13968;BME280;39536;52.198;9.920;2023-03-18T00:51:15;99999.75;;;12.87;100.00
13968;BME280;39536;52.198;9.920;2023-03-18T00:53:43;100007.13;;;12.97;100.00
13968;BME280;39536;52.198;9.920;2023-03-18T00:56:11;100007.03;;;12.98;100.00
13968;BME280;39536;52.198;9.920;2023-03-18T00:58:38;100002.56;;;13.00;100.00
13968;BME280;39536;52.198;9.920;2023-03-18T01:01:07;100019.09;;;13.01;100.00
13968;BME280;39536;52.198;9.920;2023-03-18T01:03:34;100014.13;;;12.96;100.00
13968;BME280;39536;52.198;9.920;2023-03-18T01:06:01;100018.25;;;12.83;100.00
13968;BME280;39536;52.198;9.920;2023-03-18T01:08:29;100015.59;;;12.84;100.00
13968;BME280;39536;52.198;9.920;2023-03-18T01:10:56;100008.56;;;12.85;100.00
13968;BME280;39536;52.198;9.920;2023-03-18T01:13:23;100001.66;;;12.84;100.00
13968;BME280;39536;52.198;9.920;2023-03-18T01:15:50;99997.75;;;12.75;100.00
13968;BME280;39536;52.198;9.920;2023-03-18T01:18:18;99998.50;;;12.77;100.00
13968;BME280;39536;52.198;9.920;2023-03-18T01:20:46;99989.66;;;12.80;100.00
13968;BME280;39536;52.198;9.920;2023-03-18T01:23:13;99990.50;;;12.80;100.00
13968;BME280;39536;52.198;9.920;2023-03-18T01:25:39;99998.44;;;12.79;100.00
13968;BME280;39536;52.198;9.920;2023-03-18T01:28:06;99996.66;;;12.79;100.00
13968;BME280;39536;52.198;9.920;2023-03-18T01:30:34;99997.44;;;12.81;100.00
13968;BME280;39536;52.198;9.920;2023-03-18T01:33:00;99998.34;;;12.80;100.00
13968;BME280;39536;52.198;9.920;2023-03-18T01:35:30;100003.56;;;12.80;100.00
13968;BME280;39536;52.198;9.920;2023-03-18T01:37:57;100000.22;;;12.78;100.00
13968;BME280;39536;52.198;9.920;2023-03-18T01:40:24;100008.56;;;12.67;100.00
13968;BME280;39536;52.198;9.920;2023-03-18T01:42:55;100008.56;;;12.67;100.00
13968;BME280;39536;52.198;9.920;2023-03-18T01:45:23;100005.66;;;12.56;100.00
13968;BME280;39536;52.198;9.920;2023-03-18T01:47:50;100001.44;;;12.54;100.00
13968;BME280;39536;52.198;9.920;2023-03-18T01:50:20;100000.09;;;12.45;100.00
13968;BME280;39536;52.198;9.920;2023-03-18T01:52:52;100002.66;;;12.46;100.00
13968;BME280;39536;52.198;9.920;2023-03-18T01:55:22;99998.97;;;12.51;100.00
13968;BME280;39536;52.198;9.920;2023-03-18T01:57:49;99994.53;;;12.53;100.00
13968;BME280;39536;52.198;9.920;2023-03-18T02:00:18;99991.03;;;12.52;100.00
13968;BME280;39536;52.198;9.920;2023-03-18T02:02:47;99990.34;;;12.48;100.00
13968;BME280;39536;52.198;9.920;2023-03-18T02:05:16;99993.75;;;12.51;100.00
13968;BME280;39536;52.198;9.920;2023-03-18T02:07:44;99990.66;;;12.60;100.00
13968;BME280;39536;52.198;9.920;2023-03-18T02:10:15;99994.75;;;12.65;100.00
13968;BME280;39536;52.198;9.920;2023-03-18T02:12:46;99996.44;;;12.66;100.00
13968;BME280;39536;52.198;9.920;2023-03-18T02:15:17;100005.50;;;12.59;100.00
13968;BME280;39536;52.198;9.920;2023-03-18T02:17:50;100002.06;;;12.59;100.00
13968;BME280;39536;52.198;9.920;2023-03-18T02:20:28;100003.50;;;12.64;100.00
13968;BME280;39536;52.198;9.920;2023-03-18T02:23:05;100001.97;;;12.60;100.00
13968;BME280;39536;52.198;9.920;2023-03-18T02:25:38;100003.59;;;12.63;100.00
13968;BME280;39536;52.198;9.920;2023-03-18T02:28:11;100007.81;;;12.65;100.00
13968;BME280;39536;52.198;9.920;2023-03-18T02:30:41;100013.88;;;12.66;100.00
13968;BME280;39536;52.198;9.920;2023-03-18T02:33:09;100011.41;;;12.63;100.00
13968;BME280;39536;52.198;9.920;2023-03-18T02:35:37;100015.28;;;12.56;100.00
13968;BME280;39536;52.198;9.920;2023-03-18T02:38:04;100024.41;;;12.47;100.00
13968;BME280;39536;52.198;9.920;2023-03-18T02:40:34;100025.38;;;12.44;100.00
13968;BME280;39536;52.198;9.920;2023-03-18T02:43:21;100020.78;;;12.50;100.00
13968;BME280;39536;52.198;9.920;2023-03-18T02:46:03;100028.84;;;12.45;100.00
13968;BME280;39536;52.198;9.920;2023-03-18T02:48:34;100025.25;;;12.47;100.00
13968;BME280;39536;52.198;9.920;2023-03-18T02:51:01;100026.31;;;12.43;100.00
13968;BME280;39536;52.198;9.920;2023-03-18T02:53:28;100030.59;;;12.44;100.00
13968;BME280;39536;52.198;9.920;2023-03-18T02:55:55;100028.38;;;12.37;100.00
13968;BME280;39536;52.198;9.920;2023-03-18T02:58:23;100024.06;;;12.36;100.00
13968;BME280;39536;52.198;9.920;2023-03-18T03:00:50;100020.53;;;12.37;100.00
13968;BME280;39536;52.198;9.920;2023-03-18T03:03:17;100029.81;;;12.42;100.00
13968;BME280;39536;52.198;9.920;2023-03-18T03:05:43;100030.91;;;12.38;100.00
13968;BME280;39536;52.198;9.920;2023-03-18T03:08:10;100038.34;;;12.29;100.00
13968;BME280;39536;52.198;9.920;2023-03-18T03:10:36;100045.19;;;12.31;100.00
13968;BME280;39536;52.198;9.920;2023-03-18T03:13:03;100047.78;;;12.31;100.00
13968;BME280;39536;52.198;9.920;2023-03-18T03:15:32;100053.16;;;12.28;100.00
13968;BME280;39536;52.198;9.920;2023-03-18T03:17:58;100043.16;;;12.19;100.00
13968;BME280;39536;52.198;9.920;2023-03-18T03:20:25;100050.63;;;12.08;100.00
13968;BME280;39536;52.198;9.920;2023-03-18T03:22:51;100046.25;;;12.08;100.00
13968;BME280;39536;52.198;9.920;2023-03-18T03:25:18;100054.31;;;12.04;100.00
13968;BME280;39536;52.198;9.920;2023-03-18T03:27:46;100061.06;;;11.89;100.00
13968;BME280;39536;52.198;9.920;2023-03-18T03:30:14;100064.75;;;11.85;100.00
13968;BME280;39536;52.198;9.920;2023-03-18T03:32:42;100064.91;;;11.80;100.00
13968;BME280;39536;52.198;9.920;2023-03-18T03:35:11;100053.56;;;11.81;100.00
13968;BME280;39536;52.198;9.920;2023-03-18T03:37:38;100069.25;;;11.81;100.00
13968;BME280;39536;52.198;9.920;2023-03-18T03:40:05;100063.16;;;11.80;100.00
13968;BME280;39536;52.198;9.920;2023-03-18T03:42:32;100061.88;;;11.70;100.00
13968;BME280;39536;52.198;9.920;2023-03-18T03:44:59;100056.22;;;11.61;100.00
13968;BME280;39536;52.198;9.920;2023-03-18T03:47:25;100064.84;;;11.63;100.00
13968;BME280;39536;52.198;9.920;2023-03-18T03:49:54;100062.22;;;11.63;100.00
13968;BME280;39536;52.198;9.920;2023-03-18T03:52:20;100063.22;;;11.60;100.00
13968;BME280;39536;52.198;9.920;2023-03-18T03:54:47;100067.63;;;11.58;100.00
13968;BME280;39536;52.198;9.920;2023-03-18T03:57:14;100068.44;;;11.60;100.00
13968;BME280;39536;52.198;9.920;2023-03-18T03:59:41;100057.19;;;11.58;100.00
13968;BME280;39536;52.198;9.920;2023-03-18T04:02:08;100068.44;;;11.60;100.00
13968;BME280;39536;52.198;9.920;2023-03-18T04:04:34;100066.13;;;11.52;100.00
13968;BME280;39536;52.198;9.920;2023-03-18T04:07:03;100057.34;;;11.55;100.00
13968;BME280;39536;52.198;9.920;2023-03-18T04:09:30;100058.19;;;11.55;100.00
13968;BME280;39536;52.198;9.920;2023-03-18T04:11:59;100058.00;;;11.40;100.00
13968;BME280;39536;52.198;9.920;2023-03-18T04:14:25;100065.91;;;11.38;100.00
13968;BME280;39536;52.198;9.920;2023-03-18T04:16:52;100071.25;;;11.35;100.00
13968;BME280;39536;52.198;9.920;2023-03-18T04:19:20;100072.06;;;11.17;100.00
13968;BME280;39536;52.198;9.920;2023-03-18T04:21:46;100061.63;;;11.17;100.00
13968;BME280;39536;52.198;9.920;2023-03-18T04:24:14;100066.50;;;11.04;100.00
13968;BME280;39536;52.198;9.920;2023-03-18T04:26:41;100064.97;;;11.00;100.00
13968;BME280;39536;52.198;9.920;2023-03-18T04:29:07;100068.28;;;11.03;100.00
13968;BME280;39536;52.198;9.920;2023-03-18T04:31:34;100077.06;;;11.01;100.00
13968;BME280;39536;52.198;9.920;2023-03-18T04:34:01;100080.50;;;11.01;100.00
13968;BME280;39536;52.198;9.920;2023-03-18T04:36:28;100083.84;;;11.05;100.00
13968;BME280;39536;52.198;9.920;2023-03-18T04:38:54;100086.44;;;11.05;100.00
13968;BME280;39536;52.198;9.920;2023-03-18T04:41:23;100088.19;;;11.04;100.00
13968;BME280;39536;52.198;9.920;2023-03-18T04:43:49;100092.75;;;10.99;100.00
13968;BME280;39536;52.198;9.920;2023-03-18T04:46:16;100082.44;;;10.96;100.00
13968;BME280;39536;52.198;9.920;2023-03-18T04:48:43;100079.78;;;10.98;100.00
13968;BME280;39536;52.198;9.920;2023-03-18T04:51:09;100081.72;;;10.93;100.00
13968;BME280;39536;52.198;9.920;2023-03-18T04:53:37;100077.31;;;10.95;100.00
13968;BME280;39536;52.198;9.920;2023-03-18T04:56:04;100084.09;;;10.99;100.00
13968;BME280;39536;52.198;9.920;2023-03-18T04:58:32;100081.69;;;10.94;100.00
13968;BME280;39536;52.198;9.920;2023-03-18T05:00:59;100078.88;;;10.99;100.00
13968;BME280;39536;52.198;9.920;2023-03-18T05:03:26;100077.06;;;11.01;100.00
13968;BME280;39536;52.198;9.920;2023-03-18T05:05:52;100072.66;;;11.03;100.00
13968;BME280;39536;52.198;9.920;2023-03-18T05:08:19;100076.94;;;11.04;100.00
13968;BME280;39536;52.198;9.920;2023-03-18T05:10:46;100078.63;;;11.05;100.00
13968;BME280;39536;52.198;9.920;2023-03-18T05:13:12;100079.66;;;11.01;100.00
13968;BME280;39536;52.198;9.920;2023-03-18T05:15:40;100073.66;;;10.99;100.00
13968;BME280;39536;52.198;9.920;2023-03-18T05:18:07;100082.28;;;11.01;100.00
13968;BME280;39536;52.198;9.920;2023-03-18T05:20:34;100084.94;;;10.99;100.00
13968;BME280;39536;52.198;9.920;2023-03-18T05:23:01;100081.47;;;10.99;100.00
13968;BME280;39536;52.198;9.920;2023-03-18T05:25:28;100078.16;;;10.95;100.00
13968;BME280;39536;52.198;9.920;2023-03-18T05:27:55;100075.69;;;10.92;100.00
13968;BME280;39536;52.198;9.920;2023-03-18T05:30:22;100081.81;;;10.91;100.00
13968;BME280;39536;52.198;9.920;2023-03-18T05:32:50;100088.91;;;10.88;100.00
13968;BME280;39536;52.198;9.920;2023-03-18T05:35:17;100096.09;;;10.81;100.00
13968;BME280;39536;52.198;9.920;2023-03-18T05:37:43;100099.84;;;10.75;100.00
13968;BME280;39536;52.198;9.920;2023-03-18T05:40:11;100108.75;;;10.70;100.00
13968;BME280;39536;52.198;9.920;2023-03-18T05:42:39;100103.16;;;10.57;100.00
13968;BME280;39536;52.198;9.920;2023-03-18T05:45:07;100100.25;;;10.64;100.00
13968;BME280;39536;52.198;9.920;2023-03-18T05:47:33;100104.13;;;10.54;100.00
13968;BME280;39536;52.198;9.920;2023-03-18T05:50:03;100102.44;;;10.53;100.00
13968;BME280;39536;52.198;9.920;2023-03-18T05:52:29;100103.41;;;10.51;100.00
13968;BME280;39536;52.198;9.920;2023-03-18T05:54:56;100098.25;;;10.49;100.00
13968;BME280;39536;52.198;9.920;2023-03-18T05:57:22;100100.72;;;10.52;100.00
13968;BME280;39536;52.198;9.920;2023-03-18T05:59:49;100103.41;;;10.51;100.00
13968;BME280;39536;52.198;9.920;2023-03-18T06:02:16;100109.50;;;10.50;100.00
13968;BME280;39536;52.198;9.920;2023-03-18T06:04:43;100110.53;;;10.46;100.00
13968;BME280;39536;52.198;9.920;2023-03-18T06:07:11;100111.84;;;10.34;100.00
13968;BME280;39536;52.198;9.920;2023-03-18T06:09:38;100103.44;;;10.27;100.00
13968;BME280;39536;52.198;9.920;2023-03-18T06:12:05;100108.66;;;10.27;100.00
13968;BME280;39536;52.198;9.920;2023-03-18T06:14:32;100109.44;;;10.29;100.00
13968;BME280;39536;52.198;9.920;2023-03-18T06:16:58;100108.69;;;10.26;100.00
13968;BME280;39536;52.198;9.920;2023-03-18T06:19:25;100113.69;;;10.32;100.00
13968;BME280;39536;52.198;9.920;2023-03-18T06:21:52;100124.25;;;10.27;100.00
13968;BME280;39536;52.198;9.920;2023-03-18T06:24:20;100118.91;;;10.32;100.00
13968;BME280;39536;52.198;9.920;2023-03-18T06:26:47;100112.16;;;10.26;100.00
13968;BME280;39536;52.198;9.920;2023-03-18T06:29:13;100102.56;;;10.28;100.00
13968;BME280;39536;52.198;9.920;2023-03-18T06:31:40;100107.53;;;10.34;100.00
13968;BME280;39536;52.198;9.920;2023-03-18T06:34:07;100121.19;;;10.39;100.00
13968;BME280;39536;52.198;9.920;2023-03-18T06:36:33;100123.56;;;10.46;100.00
13968;BME280;39536;52.198;9.920;2023-03-18T06:39:00;100117.31;;;10.50;100.00
13968;BME280;39536;52.198;9.920;2023-03-18T06:41:28;100121.31;;;10.58;100.00
13968;BME280;39536;52.198;9.920;2023-03-18T06:43:54;100128.06;;;10.64;100.00
13968;BME280;39536;52.198;9.920;2023-03-18T06:46:21;100126.91;;;10.71;100.00
13968;BME280;39536;52.198;9.920;2023-03-18T06:48:48;100124.13;;;10.76;100.00
13968;BME280;39536;52.198;9.920;2023-03-18T06:51:15;100137.03;;;10.79;100.00
13968;BME280;39536;52.198;9.920;2023-03-18T06:53:42;100131.84;;;10.77;100.00
13968;BME280;39536;52.198;9.920;2023-03-18T06:56:09;100140.78;;;10.72;100.00
13968;BME280;39536;52.198;9.920;2023-03-18T06:58:39;100140.72;;;10.73;100.00
13968;BME280;39536;52.198;9.920;2023-03-18T07:01:05;100147.44;;;10.79;100.00
13968;BME280;39536;52.198;9.920;2023-03-18T07:03:32;100148.88;;;10.86;100.00
13968;BME280;39536;52.198;9.920;2023-03-18T07:05:59;100154.34;;;11.02;100.00
13968;BME280;39536;52.198;9.920;2023-03-18T07:08:26;100151.19;;;11.16;100.00
13968;BME280;39536;52.198;9.920;2023-03-18T07:10:53;100150.84;;;11.23;100.00
13968;BME280;39536;52.198;9.920;2023-03-18T07:13:21;100159.09;;;11.35;100.00
13968;BME280;39536;52.198;9.920;2023-03-18T07:15:49;100157.84;;;11.43;100.00
13968;BME280;39536;52.198;9.920;2023-03-18T07:18:16;100160.03;;;11.52;100.00
13968;BME280;39536;52.198;9.920;2023-03-18T07:20:43;100166.59;;;11.63;100.00
13968;BME280;39536;52.198;9.920;2023-03-18T07:23:10;100167.22;;;11.68;100.00
13968;BME280;39536;52.198;9.920;2023-03-18T07:25:36;100175.69;;;11.73;100.00
13968;BME280;39536;52.198;9.920;2023-03-18T07:28:03;100180.78;;;11.76;100.00
13968;BME280;39536;52.198;9.920;2023-03-18T07:30:30;100184.59;;;11.89;100.00
13968;BME280;39536;52.198;9.920;2023-03-18T07:32:58;100187.00;;;11.94;100.00
13968;BME280;39536;52.198;9.920;2023-03-18T07:35:25;100187.00;;;11.94;100.00
13968;BME280;39536;52.198;9.920;2023-03-18T07:37:52;100196.25;;;12.01;100.00
13968;BME280;39536;52.198;9.920;2023-03-18T07:40:19;100196.78;;;12.09;100.00
13968;BME280;39536;52.198;9.920;2023-03-18T07:42:46;100194.75;;;12.16;100.00
13968;BME280;39536;52.198;9.920;2023-03-18T07:45:13;100195.81;;;12.31;100.00
13968;BME280;39536;52.198;9.920;2023-03-18T07:47:39;100202.75;;;12.51;100.00
13968;BME280;39536;52.198;9.920;2023-03-18T07:50:09;100202.66;;;12.52;100.00
13968;BME280;39536;52.198;9.920;2023-03-18T07:52:36;100209.31;;;12.59;100.00
13968;BME280;39536;52.198;9.920;2023-03-18T07:55:03;100205.47;;;12.66;100.00
13968;BME280;39536;52.198;9.920;2023-03-18T07:57:30;100204.34;;;12.72;100.00
13968;BME280;39536;52.198;9.920;2023-03-18T07:59:56;100209.63;;;12.70;100.00
13968;BME280;39536;52.198;9.920;2023-03-18T08:02:23;100211.47;;;12.87;100.00
13968;BME280;39536;52.198;9.920;2023-03-18T08:04:51;100208.88;;;13.05;100.00
13968;BME280;39536;52.198;9.920;2023-03-18T08:07:19;100211.91;;;13.14;100.00
13968;BME280;39536;52.198;9.920;2023-03-18T08:09:47;100212.84;;;13.13;100.00
13968;BME280;39536;52.198;9.920;2023-03-18T08:12:14;100217.72;;;13.21;100.00
13968;BME280;39536;52.198;9.920;2023-03-18T08:14:41;100213.47;;;13.18;100.00
13968;BME280;39536;52.198;9.920;2023-03-18T08:17:09;100227.75;;;13.11;100.00
13968;BME280;39536;52.198;9.920;2023-03-18T08:19:35;100227.91;;;13.08;100.00
13968;BME280;39536;52.198;9.920;2023-03-18T08:22:02;100226.28;;;13.06;100.00
13968;BME280;39536;52.198;9.920;2023-03-18T08:24:29;100224.53;;;13.06;100.00
13968;BME280;39536;52.198;9.920;2023-03-18T08:26:57;100238.38;;;13.08;100.00
13968;BME280;39536;52.198;9.920;2023-03-18T08:29:23;100225.06;;;13.13;100.00
13968;BME280;39536;52.198;9.920;2023-03-18T08:31:50;100217.28;;;13.30;100.00
13968;BME280;39536;52.198;9.920;2023-03-18T08:34:16;100223.53;;;13.28;100.00
13968;BME280;39536;52.198;9.920;2023-03-18T08:36:43;100221.00;;;13.44;100.00
13968;BME280;39536;52.198;9.920;2023-03-18T08:39:09;100224.59;;;13.41;100.00
13968;BME280;39536;52.198;9.920;2023-03-18T08:41:45;100225.09;;;13.49;100.00
13968;BME280;39536;52.198;9.920;2023-03-18T08:44:14;100228.44;;;13.51;100.00
13968;BME280;39536;52.198;9.920;2023-03-18T08:46:40;100234.06;;;13.61;100.00
13968;BME280;39536;52.198;9.920;2023-03-18T08:49:07;100248.16;;;13.76;100.00
13968;BME280;39536;52.198;9.920;2023-03-18T08:51:34;100239.38;;;13.77;100.00
13968;BME280;39536;52.198;9.920;2023-03-18T08:54:01;100251.78;;;13.91;100.00
13968;BME280;39536;52.198;9.920;2023-03-18T08:56:28;100243.97;;;14.06;100.00
13968;BME280;39536;52.198;9.920;2023-03-18T08:58:56;100242.78;;;13.96;100.00
13968;BME280;39536;52.198;9.920;2023-03-18T09:01:22;100238.28;;;13.98;100.00
13968;BME280;39536;52.198;9.920;2023-03-18T09:03:48;100240.47;;;13.90;100.00
13968;BME280;39536;52.198;9.920;2023-03-18T09:06:16;100238.69;;;13.91;100.00
13968;BME280;39536;52.198;9.920;2023-03-18T09:08:43;100247.00;;;13.99;100.00
13968;BME280;39536;52.198;9.920;2023-03-18T09:11:09;100247.16;;;13.96;100.00
13968;BME280;39536;52.198;9.920;2023-03-18T09:13:36;100252.94;;;14.02;100.00
13968;BME280;39536;52.198;9.920;2023-03-18T09:16:05;100253.94;;;14.00;100.00
13968;BME280;39536;52.198;9.920;2023-03-18T09:18:32;100265.34;;;13.99;100.00
13968;BME280;39536;52.198;9.920;2023-03-18T09:20:59;100254.25;;;13.94;100.00
13968;BME280;39536;52.198;9.920;2023-03-18T09:23:25;100254.88;;;13.99;100.00
13968;BME280;39536;52.198;9.920;2023-03-18T09:25:52;100253.31;;;13.95;100.00
13968;BME280;39536;52.198;9.920;2023-03-18T09:28:21;100262.16;;;13.92;100.00
13968;BME280;39536;52.198;9.920;2023-03-18T09:30:48;100262.09;;;13.94;100.00
13968;BME280;39536;52.198;9.920;2023-03-18T09:33:17;100260.88;;;13.83;100.00
13968;BME280;39536;52.198;9.920;2023-03-18T09:35:43;100252.25;;;13.99;100.00
13968;BME280;39536;52.198;9.920;2023-03-18T09:38:12;100247.81;;;14.17;100.00
13968;BME280;39536;52.198;9.920;2023-03-18T09:40:49;100258.75;;;14.25;100.00
13968;BME280;39536;52.198;9.920;2023-03-18T09:43:31;100265.81;;;14.40;100.00
13968;BME280;39536;52.198;9.920;2023-03-18T09:46:05;100249.66;;;14.48;100.00
13968;BME280;39536;52.198;9.920;2023-03-18T09:48:47;100258.53;;;14.45;100.00
13968;BME280;39536;52.198;9.920;2023-03-18T09:51:28;100262.81;;;14.30;100.00
13968;BME280;39536;52.198;9.920;2023-03-18T09:54:02;100262.19;;;14.43;100.00
13968;BME280;39536;52.198;9.920;2023-03-18T09:56:33;100259.78;;;14.55;100.00
13968;BME280;39536;52.198;9.920;2023-03-18T09:59:03;100268.00;;;14.65;100.00
13968;BME280;39536;52.198;9.920;2023-03-18T10:01:33;100264.44;;;14.66;100.00
13968;BME280;39536;52.198;9.920;2023-03-18T10:04:05;100262.50;;;14.86;100.00
13968;BME280;39536;52.198;9.920;2023-03-18T10:06:39;100269.03;;;14.94;100.00
13968;BME280;39536;52.198;9.920;2023-03-18T10:09:12;100275.53;;;14.87;100.00
13968;BME280;39536;52.198;9.920;2023-03-18T10:11:42;100278.34;;;15.00;100.00
13968;BME280;39536;52.198;9.920;2023-03-18T10:14:18;100278.44;;;14.98;100.00
13968;BME280;39536;52.198;9.920;2023-03-18T10:17:02;100284.09;;;15.07;100.00
13968;BME280;39536;52.198;9.920;2023-03-18T10:19:33;100278.16;;;15.03;100.00
13968;BME280;39536;52.198;9.920;2023-03-18T10:22:11;100271.28;;;15.16;100.00
13968;BME280;39536;52.198;9.920;2023-03-18T10:24:47;100278.31;;;15.16;100.00
13968;BME280;39536;52.198;9.920;2023-03-18T10:27:20;100283.06;;;15.09;100.00
13968;BME280;39536;52.198;9.920;2023-03-18T10:29:56;100264.13;;;14.88;100.00
13968;BME280;39536;52.198;9.920;2023-03-18T10:32:31;100275.47;;;15.05;100.00
13968;BME280;39536;52.198;9.920;2023-03-18T10:35:07;100275.53;;;15.19;100.00
13968;BME280;39536;52.198;9.920;2023-03-18T10:37:46;100273.56;;;15.38;100.00
13968;BME280;39536;52.198;9.920;2023-03-18T10:40:17;100267.94;;;15.60;100.00
13968;BME280;39536;52.198;9.920;2023-03-18T10:42:44;100277.50;;;15.15;100.00
13968;BME280;39536;52.198;9.920;2023-03-18T10:45:22;100282.06;;;15.12;100.00
13968;BME280;39536;52.198;9.920;2023-03-18T10:47:55;100279.09;;;15.18;100.00
13968;BME280;39536;52.198;9.920;2023-03-18T10:50:29;100270.44;;;15.32;100.00
13968;BME280;39536;52.198;9.920;2023-03-18T10:53:01;100277.59;;;15.60;100.00
13968;BME280;39536;52.198;9.920;2023-03-18T10:55:33;100271.31;;;15.78;100.00
13968;BME280;39536;52.198;9.920;2023-03-18T10:58:12;100280.06;;;15.93;100.00
13968;BME280;39536;52.198;9.920;2023-03-18T11:00:39;100278.28;;;15.93;100.00
13968;BME280;39536;52.198;9.920;2023-03-18T11:03:18;100272.66;;;16.00;100.00
13968;BME280;39536;52.198;9.920;2023-03-18T11:05:46;100286.38;;;16.05;100.00
13968;BME280;39536;52.198;9.920;2023-03-18T11:08:32;100274.63;;;15.96;100.00
13968;BME280;39536;52.198;9.920;2023-03-18T11:11:25;100270.16;;;16.12;100.00
13968;BME280;39536;52.198;9.920;2023-03-18T11:13:53;100261.91;;;16.33;100.00
13968;BME280;39536;52.198;9.920;2023-03-18T11:16:25;100271.47;;;16.34;100.00
13968;BME280;39536;52.198;9.920;2023-03-18T11:18:55;100275.53;;;16.39;100.00
13968;BME280;39536;52.198;9.920;2023-03-18T11:21:25;100276.47;;;16.67;100.00
13968;BME280;39536;52.198;9.920;2023-03-18T11:23:55;100279.63;;;16.72;100.00
13968;BME280;39536;52.198;9.920;2023-03-18T11:26:43;100273.63;;;16.99;100.00
13968;BME280;39536;52.198;9.920;2023-03-18T11:29:12;100280.03;;;17.22;100.00
13968;BME280;39536;52.198;9.920;2023-03-18T11:31:47;100287.09;;;17.21;100.00
13968;BME280;39536;52.198;9.920;2023-03-18T11:34:16;100285.63;;;17.03;100.00
13968;BME280;39536;52.198;9.920;2023-03-18T11:36:51;100282.88;;;17.19;100.00
13968;BME280;39536;52.198;9.920;2023-03-18T11:39:21;100278.19;;;17.09;100.00
13968;BME280;39536;52.198;9.920;2023-03-18T11:41:49;100285.94;;;16.98;100.00
13968;BME280;39536;52.198;9.920;2023-03-18T11:44:18;100275.38;;;17.13;100.00
13968;BME280;39536;52.198;9.920;2023-03-18T11:46:48;100286.19;;;17.35;100.00
13968;BME280;39536;52.198;9.920;2023-03-18T11:49:16;100271.81;;;17.53;100.00
13968;BME280;39536;52.198;9.920;2023-03-18T11:51:48;100272.63;;;17.41;100.00
13968;BME280;39536;52.198;9.920;2023-03-18T11:54:29;100286.25;;;17.21;100.00
13968;BME280;39536;52.198;9.920;2023-03-18T11:57:08;100278.19;;;17.09;100.00
13968;BME280;39536;52.198;9.920;2023-03-18T11:59:45;100286.16;;;17.22;100.00
13968;BME280;39536;52.198;9.920;2023-03-18T12:02:43;100292.53;;;17.33;100.00
13968;BME280;39536;52.198;9.920;2023-03-18T12:05:35;100297.22;;;17.27;100.00
13968;BME280;39536;52.198;9.920;2023-03-18T12:08:11;100299.88;;;17.13;100.00
13968;BME280;39536;52.198;9.920;2023-03-18T12:10:43;100293.66;;;16.87;100.00
13968;BME280;39536;52.198;9.920;2023-03-18T12:13:32;100294.97;;;17.36;100.00
13968;BME280;39536;52.198;9.920;2023-03-18T12:16:07;100294.09;;;17.08;100.00
13968;BME280;39536;52.198;9.920;2023-03-18T12:18:51;100297.69;;;16.64;100.00
13968;BME280;39536;52.198;9.920;2023-03-18T12:21:35;100289.03;;;16.62;100.00
13968;BME280;39536;52.198;9.920;2023-03-18T12:24:25;100288.97;;;16.78;100.00
13968;BME280;39536;52.198;9.920;2023-03-18T12:27:00;100286.78;;;16.84;100.00
13968;BME280;39536;52.198;9.920;2023-03-18T12:29:42;100293.47;;;16.90;100.00
13968;BME280;39536;52.198;9.920;2023-03-18T12:32:23;100289.16;;;16.89;100.00
13968;BME280;39536;52.198;9.920;2023-03-18T12:35:15;100281.31;;;17.02;100.00
13968;BME280;39536;52.198;9.920;2023-03-18T12:38:03;100281.53;;;16.84;100.00
13968;BME280;39536;52.198;9.920;2023-03-18T12:40:42;100281.22;;;16.75;100.00
13968;BME280;39536;52.198;9.920;2023-03-18T12:43:30;100278.31;;;16.51;100.00
13968;BME280;39536;52.198;9.920;2023-03-18T12:46:03;100283.13;;;16.44;100.00
13968;BME280;39536;52.198;9.920;2023-03-18T12:48:38;100295.72;;;16.53;100.00
13968;BME280;39536;52.198;9.920;2023-03-18T12:51:14;100277.78;;;16.46;100.00
13968;BME280;39536;52.198;9.920;2023-03-18T12:53:44;100284.72;;;16.47;100.00